Time;durP1;ratioP1;P1;durP2;ratioP2;P2;SDS_P1;SDS_P2;PMS_P1;PMS_P2;Temp;Humidity;BMP_temperature;BMP_pressure;BME280_temperature;BME280_humidity;BME280_pressure;Samples;Min_cycle;Max_cycle;Signal;HPM_P1;HPM_P2
2023/07/31 00:01:44;;;;;;;4.50;2.47;;;14.10;99.90;;;;;;5019311;28;20751;-56
2023/07/31 00:04:10;;;;;;;4.32;2.38;;;14.10;99.90;;;;;;5016598;28;20109;-55
2023/07/31 00:06:35;;;;;;;4.88;2.10;;;14.10;99.90;;;;;;5020707;28;20052;-55
2023/07/31 00:09:01;;;;;;;3.00;1.80;;;14.10;99.90;;;;;;5015747;28;20391;-55
2023/07/31 00:11:26;;;;;;;3.58;2.00;;;14.10;99.90;;;;;;5021721;28;20032;-51
2023/07/31 00:13:53;;;;;;;6.55;2.08;;;14.10;99.90;;;;;;5010403;28;20018;-52
2023/07/31 00:16:19;;;;;;;2.40;1.73;;;14.10;99.90;;;;;;5023968;28;20483;-56
2023/07/31 00:18:44;;;;;;;6.70;2.30;;;14.10;99.90;;;;;;5011396;28;20022;-51
2023/07/31 00:21:10;;;;;;;3.75;2.28;;;14.20;99.90;;;;;;5024584;28;20065;-54
2023/07/31 00:23:35;;;;;;;5.72;2.17;;;14.20;99.90;;;;;;5013615;28;20022;-55
2023/07/31 00:26:01;;;;;;;5.50;2.10;;;14.20;99.90;;;;;;5022040;28;20495;-52
2023/07/31 00:28:28;;;;;;;3.85;2.63;;;14.20;99.90;;;;;;5014393;28;20052;-55
2023/07/31 00:30:54;;;;;;;4.82;2.15;;;14.20;99.90;;;;;;5014412;28;20030;-56
2023/07/31 00:33:19;;;;;;;4.53;2.13;;;14.20;99.90;;;;;;5018535;28;20061;-55
2023/07/31 00:35:45;;;;;;;6.30;2.50;;;14.20;99.90;;;;;;5018561;28;20040;-53
2023/07/31 00:38:10;;;;;;;5.68;1.92;;;14.20;99.90;;;;;;5018474;28;20097;-55
2023/07/31 00:40:37;;;;;;;2.15;1.55;;;14.20;99.90;;;;;;5019608;28;20040;-56
2023/07/31 00:43:03;;;;;;;3.42;1.75;;;14.20;99.90;;;;;;5018437;28;20049;-54
2023/07/31 00:45:29;;;;;;;6.25;2.60;;;14.20;99.90;;;;;;5012687;28;20029;-57
2023/07/31 00:47:54;;;;;;;3.85;2.40;;;14.20;99.90;;;;;;5002599;28;20399;-56
2023/07/31 00:50:22;;;;;;;4.05;2.08;;;14.20;99.90;;;;;;5011689;28;20040;-55
2023/07/31 00:52:48;;;;;;;7.07;2.35;;;14.20;99.90;;;;;;5005852;28;20033;-54
2023/07/31 00:55:13;;;;;;;6.13;2.13;;;14.20;99.90;;;;;;5008543;28;20014;-55
2023/07/31 00:57:41;;;;;;;5.93;1.92;;;14.20;99.90;;;;;;5024037;28;20025;-57
2023/07/31 01:00:07;;;;;;;6.90;1.73;;;14.20;99.90;;;;;;5012118;28;20137;-59
2023/07/31 01:02:33;;;;;;;4.45;1.52;;;14.20;99.90;;;;;;5009376;28;20502;-58
2023/07/31 01:04:59;;;;;;;3.65;1.80;;;14.20;99.90;;;;;;5012778;28;20049;-56
2023/07/31 01:07:44;;;;;;;8.10;2.47;;;14.20;99.90;;;;;;5018153;28;20030;-54
2023/07/31 01:10:26;;;;;;;5.32;2.03;;;14.20;99.90;;;;;;5003459;28;20030;-55
2023/07/31 01:12:53;;;;;;;8.20;1.73;;;14.10;99.90;;;;;;5021274;28;20018;-53
2023/07/31 01:15:18;;;;;;;5.35;2.08;;;14.10;99.90;;;;;;5011919;28;20041;-55
2023/07/31 01:17:44;;;;;;;10.38;2.20;;;14.10;99.90;;;;;;5018018;28;20033;-58
2023/07/31 01:20:23;;;;;;;4.72;2.08;;;14.10;99.90;;;;;;5015774;28;20380;-56
2023/07/31 01:23:13;;;;;;;7.32;2.17;;;14.10;99.90;;;;;;5021949;28;20029;-57
2023/07/31 01:26:18;;;;;;;4.82;2.13;;;14.00;99.90;;;;;;5018859;28;20049;-53
2023/07/31 01:28:50;;;;;;;4.13;1.75;;;14.00;99.90;;;;;;5009605;28;20125;-55
2023/07/31 01:31:21;;;;;;;7.10;1.90;;;14.00;99.90;;;;;;5009179;28;20704;-56
2023/07/31 01:33:48;;;;;;;8.07;2.60;;;14.00;99.90;;;;;;5017180;28;20030;-57
2023/07/31 01:36:14;;;;;;;7.43;1.77;;;14.00;99.90;;;;;;5013809;28;20458;-58
2023/07/31 01:38:39;;;;;;;5.70;2.13;;;13.90;99.90;;;;;;4994112;28;20411;-57
2023/07/31 01:41:05;;;;;;;2.85;1.63;;;14.00;99.90;;;;;;5016544;28;20022;-55
2023/07/31 01:43:30;;;;;;;2.83;2.17;;;13.90;99.90;;;;;;5017372;28;20030;-57
2023/07/31 01:45:56;;;;;;;8.68;2.38;;;13.90;99.90;;;;;;5013153;28;20021;-57
2023/07/31 01:48:21;;;;;;;5.15;2.10;;;14.00;99.90;;;;;;5004318;28;20030;-57
2023/07/31 01:50:47;;;;;;;6.07;2.55;;;14.00;99.90;;;;;;5015076;28;20021;-54
2023/07/31 01:53:13;;;;;;;7.75;1.95;;;13.90;99.90;;;;;;5014149;28;20025;-57
2023/07/31 01:55:38;;;;;;;7.95;2.47;;;14.00;99.90;;;;;;5011425;28;20021;-57
2023/07/31 01:58:04;;;;;;;4.32;2.33;;;14.00;99.90;;;;;;5023082;28;20447;-56
2023/07/31 02:00:30;;;;;;;8.27;2.50;;;13.90;99.90;;;;;;5005993;28;20026;-56
2023/07/31 02:02:55;;;;;;;7.55;2.20;;;13.90;99.90;;;;;;5013175;28;20026;-55
2023/07/31 02:05:21;;;;;;;6.15;2.65;;;13.90;99.90;;;;;;5008916;28;20045;-58
2023/07/31 02:07:46;;;;;;;5.30;1.85;;;14.00;99.90;;;;;;5015748;28;20447;-55
2023/07/31 02:10:12;;;;;;;5.00;2.20;;;13.90;99.90;;;;;;5009451;28;20570;-58
2023/07/31 02:12:37;;;;;;;8.15;2.38;;;13.90;99.90;;;;;;5014676;28;20030;-53
2023/07/31 02:15:03;;;;;;;4.60;2.20;;;13.90;99.90;;;;;;5012326;28;20485;-57
2023/07/31 02:17:29;;;;;;;4.00;2.28;;;13.90;99.90;;;;;;5017184;28;20511;-56
2023/07/31 02:19:55;;;;;;;8.77;3.00;;;13.90;99.90;;;;;;5016050;28;20244;-55
2023/07/31 02:22:20;;;;;;;3.97;2.40;;;13.90;99.90;;;;;;5007858;28;20037;-56
2023/07/31 02:24:46;;;;;;;5.57;2.20;;;13.90;99.90;;;;;;5008432;28;20053;-56
2023/07/31 02:27:12;;;;;;;4.60;2.47;;;13.90;99.90;;;;;;5040933;22;20380;-63
2023/07/31 02:29:37;;;;;;;11.60;3.30;;;13.90;99.90;;;;;;5049342;28;20505;-63
2023/07/31 02:32:03;;;;;;;5.97;2.47;;;13.90;99.90;;;;;;5054216;28;20873;-63
2023/07/31 02:34:29;;;;;;;6.65;2.78;;;14.00;99.90;;;;;;5057464;28;20028;-63
2023/07/31 02:36:54;;;;;;;4.93;2.25;;;14.00;99.90;;;;;;5055355;28;20508;-63
2023/07/31 02:39:20;;;;;;;6.78;2.60;;;14.00;99.90;;;;;;5056252;28;20036;-63
2023/07/31 02:41:46;;;;;;;2.25;2.05;;;14.00;99.90;;;;;;5056933;28;20025;-63
2023/07/31 02:44:14;;;;;;;5.57;2.88;;;14.00;99.90;;;;;;5062137;28;20431;-63
2023/07/31 02:46:39;;;;;;;6.85;2.63;;;14.00;99.90;;;;;;5052039;28;20095;-63
2023/07/31 02:49:05;;;;;;;8.63;2.60;;;14.00;99.90;;;;;;5052174;28;20487;-64
2023/07/31 02:51:31;;;;;;;8.43;2.65;;;14.00;99.90;;;;;;5058176;28;20547;-64
2023/07/31 02:53:56;;;;;;;3.92;2.45;;;14.00;99.90;;;;;;5071038;28;20398;-63
2023/07/31 02:56:22;;;;;;;5.82;2.45;;;14.00;99.90;;;;;;5066723;28;20037;-63
2023/07/31 02:58:47;;;;;;;6.80;2.92;;;14.00;99.90;;;;;;5071407;28;20021;-64
2023/07/31 03:01:13;;;;;;;5.32;2.25;;;14.00;99.90;;;;;;5066283;28;20039;-65
2023/07/31 03:03:39;;;;;;;8.13;2.90;;;14.00;99.90;;;;;;5068824;28;20055;-64
2023/07/31 03:06:04;;;;;;;6.40;2.28;;;14.00;99.90;;;;;;5061734;28;20104;-63
2023/07/31 03:08:30;;;;;;;6.38;2.50;;;14.00;99.90;;;;;;5062778;28;20027;-63
2023/07/31 03:10:56;;;;;;;4.95;2.55;;;14.10;99.90;;;;;;5058323;28;20096;-64
2023/07/31 03:13:22;;;;;;;5.53;2.78;;;14.10;99.90;;;;;;5064510;28;20498;-65
2023/07/31 03:15:47;;;;;;;3.33;2.63;;;14.10;99.90;;;;;;5064947;28;20029;-62
2023/07/31 03:18:13;;;;;;;6.07;2.42;;;14.10;99.90;;;;;;5059947;28;20025;-67
2023/07/31 03:20:43;;;;;;;6.35;3.17;;;14.10;99.90;;;;;;5065896;28;20024;-63
2023/07/31 03:23:08;;;;;;;4.05;2.45;;;14.10;99.90;;;;;;5063831;28;20025;-63
2023/07/31 03:25:34;;;;;;;4.97;2.67;;;14.10;99.90;;;;;;5064735;28;20036;-62
2023/07/31 03:27:59;;;;;;;7.72;3.08;;;14.10;99.90;;;;;;5061312;28;20028;-63
2023/07/31 03:30:25;;;;;;;10.80;2.83;;;14.10;99.90;;;;;;5052751;28;20025;-61
2023/07/31 03:32:50;;;;;;;6.88;3.20;;;14.10;99.90;;;;;;5052763;28;20040;-64
2023/07/31 03:35:16;;;;;;;4.00;2.35;;;14.10;99.90;;;;;;5062314;28;20055;-63
2023/07/31 03:37:41;;;;;;;3.88;2.90;;;14.10;99.90;;;;;;5060477;28;20017;-65
2023/07/31 03:40:08;;;;;;;7.00;2.70;;;14.20;99.90;;;;;;5061150;28;20406;-63
2023/07/31 03:42:34;;;;;;;6.65;3.50;;;14.20;99.90;;;;;;5050956;28;20314;-64
2023/07/31 03:44:59;;;;;;;5.55;2.53;;;14.20;99.90;;;;;;5063724;28;20537;-64
2023/07/31 03:47:25;;;;;;;6.93;3.00;;;14.20;99.90;;;;;;5066469;28;20024;-63
2023/07/31 03:49:51;;;;;;;4.25;2.35;;;14.20;99.90;;;;;;5061992;28;20073;-64
2023/07/31 03:52:16;;;;;;;6.03;3.15;;;14.20;99.90;;;;;;5054720;28;20028;-64
2023/07/31 03:54:44;;;;;;;7.90;2.88;;;14.20;99.90;;;;;;5055989;28;20476;-64
2023/07/31 03:57:10;;;;;;;5.15;3.03;;;14.20;99.90;;;;;;5058770;28;20131;-62
2023/07/31 03:59:35;;;;;;;6.90;2.95;;;14.30;99.90;;;;;;5064189;28;20146;-64
2023/07/31 04:02:01;;;;;;;5.82;2.88;;;14.30;99.90;;;;;;5056159;28;20062;-64
2023/07/31 04:04:26;;;;;;;7.00;2.63;;;14.30;99.90;;;;;;5053227;28;20025;-63
2023/07/31 04:06:52;;;;;;;6.85;3.47;;;14.40;99.90;;;;;;5059765;28;20025;-64
2023/07/31 04:09:17;;;;;;;4.05;3.00;;;14.40;99.90;;;;;;5065066;28;20045;-65
2023/07/31 04:11:43;;;;;;;6.32;2.88;;;14.40;99.90;;;;;;5054643;28;20040;-64
2023/07/31 04:14:09;;;;;;;4.72;2.80;;;14.40;99.90;;;;;;5062392;28;20025;-64
2023/07/31 04:16:34;;;;;;;3.53;2.45;;;14.40;99.90;;;;;;5059570;28;20031;-63
2023/07/31 04:19:00;;;;;;;4.50;3.47;;;14.40;99.90;;;;;;5071661;28;20046;-63
2023/07/31 04:21:25;;;;;;;6.43;2.88;;;14.40;99.90;;;;;;5058607;28;20035;-63
2023/07/31 04:23:51;;;;;;;4.55;2.67;;;14.40;99.90;;;;;;5055497;28;20387;-64
2023/07/31 04:26:16;;;;;;;3.38;2.95;;;14.40;99.90;;;;;;5059817;28;20504;-65
2023/07/31 04:28:42;;;;;;;7.82;3.45;;;14.50;99.90;;;;;;5057134;28;20032;-64
2023/07/31 04:31:08;;;;;;;3.28;2.65;;;14.50;99.90;;;;;;5047405;28;20029;-64
2023/07/31 04:33:34;;;;;;;6.57;2.92;;;14.50;99.90;;;;;;5055885;28;20435;-63
2023/07/31 04:35:59;;;;;;;4.85;3.15;;;14.50;99.90;;;;;;5056803;28;20108;-62
2023/07/31 04:38:27;;;;;;;5.05;2.92;;;14.60;99.90;;;;;;5054762;28;20064;-63
2023/07/31 04:40:52;;;;;;;3.33;2.90;;;14.50;99.90;;;;;;5066753;28;20086;-62
2023/07/31 04:43:18;;;;;;;5.97;2.72;;;14.60;99.90;;;;;;5055884;28;20048;-63
2023/07/31 04:45:47;;;;;;;4.28;3.00;;;14.60;99.90;;;;;;5055943;28;20025;-63
2023/07/31 04:48:13;;;;;;;4.10;2.83;;;14.60;99.90;;;;;;5043155;28;20628;-65
2023/07/31 04:50:38;;;;;;;4.03;2.80;;;14.60;99.90;;;;;;5060529;28;20048;-63
2023/07/31 04:53:04;;;;;;;4.82;2.95;;;14.60;99.90;;;;;;5059658;28;20029;-64
2023/07/31 04:55:30;;;;;;;4.40;2.90;;;14.60;99.90;;;;;;5061200;28;20029;-64
2023/07/31 04:57:55;;;;;;;4.13;2.65;;;14.70;99.90;;;;;;5061353;28;20017;-64
2023/07/31 05:00:21;;;;;;;3.90;2.40;;;14.70;99.90;;;;;;5057852;28;20114;-64
2023/07/31 05:02:47;;;;;;;3.05;2.63;;;14.70;99.90;;;;;;5049597;28;20155;-64
2023/07/31 05:05:12;;;;;;;3.42;2.33;;;14.70;99.90;;;;;;5057498;28;20443;-64
2023/07/31 05:07:38;;;;;;;2.45;2.22;;;14.70;99.90;;;;;;5057073;28;20033;-63
2023/07/31 05:10:04;;;;;;;2.90;2.15;;;14.70;99.90;;;;;;5065401;28;20101;-62
2023/07/31 05:12:29;;;;;;;2.70;2.08;;;14.70;99.90;;;;;;5060791;28;20029;-63
2023/07/31 05:14:57;;;;;;;2.85;2.50;;;14.80;99.90;;;;;;5067952;28;20020;-64
2023/07/31 05:17:22;;;;;;;5.75;2.95;;;14.80;99.90;;;;;;5061955;28;20103;-64
2023/07/31 05:19:48;;;;;;;2.25;2.05;;;14.80;99.90;;;;;;5067744;28;20032;-65
2023/07/31 05:22:13;;;;;;;2.47;2.28;;;14.70;99.90;;;;;;5066619;28;20491;-64
2023/07/31 05:24:39;;;;;;;2.50;2.30;;;14.80;99.90;;;;;;5066120;28;20027;-64
2023/07/31 05:27:05;;;;;;;2.97;2.30;;;14.80;99.90;;;;;;5065758;28;20035;-64
2023/07/31 05:29:30;;;;;;;2.53;2.08;;;14.80;99.90;;;;;;5061579;28;20023;-63
2023/07/31 05:31:56;;;;;;;2.22;1.80;;;14.90;99.90;;;;;;5066820;28;20089;-64
2023/07/31 05:34:21;;;;;;;3.58;2.38;;;14.80;99.90;;;;;;5062395;28;20028;-63
2023/07/31 05:36:47;;;;;;;1.98;1.77;;;14.90;99.90;;;;;;5060471;28;20121;-63
2023/07/31 05:39:13;;;;;;;3.50;2.28;;;14.90;99.90;;;;;;5059696;28;20405;-63
2023/07/31 05:41:38;;;;;;;2.47;2.20;;;14.90;99.90;;;;;;5053752;28;20407;-63
2023/07/31 05:44:04;;;;;;;2.47;2.22;;;14.90;99.90;;;;;;5063029;28;20024;-64
2023/07/31 05:46:31;;;;;;;2.47;1.92;;;14.90;99.90;;;;;;5062551;28;20020;-63
2023/07/31 05:48:56;;;;;;;2.22;2.03;;;14.90;99.90;;;;;;5061033;28;20016;-63
2023/07/31 05:51:22;;;;;;;2.17;1.75;;;14.90;99.90;;;;;;5062431;28;20090;-63
2023/07/31 05:53:47;;;;;;;3.33;2.17;;;15.00;99.90;;;;;;5053055;28;20059;-65
2023/07/31 05:56:13;;;;;;;2.80;2.50;;;15.00;99.90;;;;;;5068286;28;20065;-62
2023/07/31 05:58:38;;;;;;;3.40;1.95;;;15.00;99.90;;;;;;5059685;28;20441;-63
2023/07/31 06:01:04;;;;;;;1.70;1.50;;;15.00;99.90;;;;;;5063920;28;20047;-63
2023/07/31 06:03:30;;;;;;;2.22;1.88;;;15.00;99.90;;;;;;5059875;28;20050;-64
2023/07/31 06:05:56;;;;;;;2.05;1.75;;;15.00;99.90;;;;;;5049458;28;20021;-63
2023/07/31 06:08:21;;;;;;;1.92;1.48;;;15.00;99.90;;;;;;5058615;28;20044;-62
2023/07/31 06:10:47;;;;;;;3.03;1.67;;;15.10;99.90;;;;;;5062808;28;20412;-63
2023/07/31 06:13:12;;;;;;;1.95;1.70;;;15.10;99.90;;;;;;5064403;28;20017;-62
2023/07/31 06:15:38;;;;;;;2.40;1.75;;;15.10;99.90;;;;;;5055839;28;20419;-63
2023/07/31 06:18:07;;;;;;;1.83;1.70;;;15.10;99.90;;;;;;5061014;28;20021;-59
2023/07/31 06:20:33;;;;;;;1.77;1.33;;;15.10;99.90;;;;;;5058330;28;20079;-62
2023/07/31 06:22:59;;;;;;;2.55;1.95;;;15.20;99.90;;;;;;5062319;28;20079;-63
2023/07/31 06:25:25;;;;;;;1.50;1.40;;;15.20;99.90;;;;;;5058922;28;20033;-63
2023/07/31 06:27:51;;;;;;;1.33;1.23;;;15.20;99.90;;;;;;5062483;28;20040;-63
2023/07/31 06:30:17;;;;;;;1.85;1.60;;;15.20;99.90;;;;;;5057818;28;20089;-59
2023/07/31 06:32:42;;;;;;;1.40;1.30;;;15.20;99.90;;;;;;5057199;28;20673;-59
2023/07/31 06:35:08;;;;;;;1.40;1.30;;;15.20;99.90;;;;;;5057265;28;20024;-58
2023/07/31 06:37:34;;;;;;;4.28;1.60;;;15.30;99.90;;;;;;5066768;28;20025;-60
2023/07/31 06:40:00;;;;;;;3.20;1.30;;;15.30;99.90;;;;;;5060593;28;20020;-57
2023/07/31 06:42:25;;;;;;;2.00;1.65;;;15.30;99.90;;;;;;5065961;28;20081;-60
2023/07/31 06:44:51;;;;;;;2.22;1.10;;;15.30;99.90;;;;;;5060767;28;20529;-60
2023/07/31 06:47:17;;;;;;;2.65;1.38;;;15.30;99.90;;;;;;5063644;28;20107;-61
2023/07/31 06:49:42;;;;;;;2.70;2.35;;;15.30;99.90;;;;;;5060791;28;20089;-62
2023/07/31 06:52:08;;;;;;;3.00;1.50;;;15.30;99.90;;;;;;5064958;28;20036;-63
2023/07/31 06:54:33;;;;;;;2.83;1.30;;;15.30;99.90;;;;;;5055505;28;20112;-63
2023/07/31 06:56:59;;;;;;;1.42;1.30;;;15.30;99.90;;;;;;5058952;28;20483;-62
2023/07/31 06:59:24;;;;;;;1.42;1.33;;;15.30;99.90;;;;;;5057599;28;20532;-64
2023/07/31 07:01:50;;;;;;;1.58;1.35;;;15.40;99.90;;;;;;5065313;28;20063;-64
2023/07/31 07:04:15;;;;;;;1.75;1.60;;;15.40;99.90;;;;;;5053921;28;20131;-64
2023/07/31 07:06:42;;;;;;;1.75;1.60;;;15.40;99.90;;;;;;5060073;28;20032;-63
2023/07/31 07:09:07;;;;;;;1.65;1.52;;;15.40;99.90;;;;;;5064720;28;20031;-64
2023/07/31 07:11:33;;;;;;;1.90;1.42;;;15.40;99.90;;;;;;5051258;28;20124;-64
2023/07/31 07:14:00;;;;;;;4.47;1.42;;;15.40;99.90;;;;;;5053891;28;20144;-65
2023/07/31 07:16:25;;;;;;;1.38;1.20;;;15.40;99.90;;;;;;5054272;28;20029;-66
2023/07/31 07:18:51;;;;;;;1.73;1.63;;;15.40;99.90;;;;;;5067883;28;20027;-66
2023/07/31 07:21:17;;;;;;;1.80;1.58;;;15.40;99.90;;;;;;5068773;28;20059;-65
2023/07/31 07:23:43;;;;;;;1.50;1.30;;;15.50;99.90;;;;;;5066539;28;20492;-65
2023/07/31 07:26:08;;;;;;;1.60;1.50;;;15.40;99.90;;;;;;5061663;28;20016;-64
2023/07/31 07:28:34;;;;;;;1.80;1.70;;;15.40;99.90;;;;;;5065628;28;20090;-65
2023/07/31 07:31:00;;;;;;;1.63;1.52;;;15.50;99.90;;;;;;5062728;28;20055;-65
2023/07/31 07:33:25;;;;;;;2.63;1.58;;;15.50;99.90;;;;;;5062456;28;20051;-65
2023/07/31 07:35:51;;;;;;;4.60;3.33;;;15.50;99.90;;;;;;5058090;28;20126;-66
2023/07/31 07:38:19;;;;;;;1.70;1.33;;;15.50;99.90;;;;;;5069844;28;20070;-66
2023/07/31 07:40:46;;;;;;;3.08;2.03;;;15.60;99.90;;;;;;5061941;28;20113;-66
2023/07/31 07:43:12;;;;;;;1.85;1.38;;;15.60;99.90;;;;;;5064879;28;20018;-66
2023/07/31 07:45:37;;;;;;;2.05;1.40;;;15.60;99.90;;;;;;5065272;28;20024;-65
2023/07/31 07:48:03;;;;;;;1.52;1.40;;;15.70;99.90;;;;;;5066124;28;20066;-66
2023/07/31 07:50:29;;;;;;;3.75;1.35;;;15.70;99.90;;;;;;5060887;28;20487;-64
2023/07/31 07:52:54;;;;;;;2.50;1.30;;;15.70;99.90;;;;;;5059010;28;20025;-65
2023/07/31 07:55:20;;;;;;;1.40;1.30;;;15.70;99.90;;;;;;5057285;28;20040;-65
2023/07/31 07:57:45;;;;;;;1.40;1.30;;;15.80;99.90;;;;;;5065427;28;20051;-65
2023/07/31 08:00:12;;;;;;;1.23;1.13;;;15.80;99.90;;;;;;5065041;28;20055;-65
2023/07/31 08:02:38;;;;;;;2.83;1.30;;;15.80;99.90;;;;;;5064693;28;20025;-65
2023/07/31 08:05:04;;;;;;;1.67;1.08;;;15.90;99.90;;;;;;5057407;28;20052;-64
2023/07/31 08:07:30;;;;;;;2.70;1.40;;;15.90;99.90;;;;;;5054199;28;20561;-65
2023/07/31 08:09:55;;;;;;;1.40;1.30;;;15.90;99.90;;;;;;5068604;28;20021;-65
2023/07/31 08:12:21;;;;;;;2.50;1.42;;;16.00;99.90;;;;;;5066962;28;20491;-64
2023/07/31 08:14:46;;;;;;;1.30;1.20;;;16.00;99.90;;;;;;5052780;28;20021;-66
2023/07/31 08:17:12;;;;;;;4.43;1.70;;;16.10;99.90;;;;;;5062650;28;20720;-65
2023/07/31 08:19:37;;;;;;;1.60;1.50;;;16.10;99.90;;;;;;5066171;28;20029;-65
2023/07/31 08:22:03;;;;;;;1.50;1.40;;;16.10;99.90;;;;;;5059370;28;20184;-63
2023/07/31 08:24:29;;;;;;;2.95;1.50;;;16.10;99.90;;;;;;5056440;28;20479;-65
2023/07/31 08:26:54;;;;;;;3.97;1.83;;;16.20;99.90;;;;;;5067762;28;20104;-65
2023/07/31 08:29:32;;;;;;;4.15;1.55;;;16.20;99.90;;;;;;5104467;22;20132;-85
2023/07/31 08:31:58;;;;;;;1.63;1.52;;;16.30;99.90;;;;;;5059690;28;20037;-86
2023/07/31 08:34:23;;;;;;;6.80;1.60;;;16.40;99.90;;;;;;5048183;28;20041;-86
2023/07/31 08:36:52;;;;;;;1.35;1.25;;;16.50;99.90;;;;;;5032455;28;20017;-85
2023/07/31 08:39:18;;;;;;;3.90;1.30;;;16.50;99.90;;;;;;5042558;28;20495;-85
2023/07/31 08:41:49;;;;;;;2.45;1.13;;;16.50;99.90;;;;;;5035766;28;20095;-85
2023/07/31 08:44:20;;;;;;;1.80;1.48;;;16.50;99.90;;;;;;5032351;28;20018;-85
2023/07/31 08:46:47;;;;;;;1.85;1.55;;;16.60;99.90;;;;;;5032124;28;20025;-86
2023/07/31 08:49:13;;;;;;;2.40;1.25;;;16.60;99.90;;;;;;5053040;28;20067;-86
2023/07/31 08:51:41;;;;;;;1.48;1.38;;;16.60;99.90;;;;;;5042479;28;20021;-86
2023/07/31 08:54:07;;;;;;;1.27;1.20;;;16.60;99.90;;;;;;5039268;28;20120;-86
2023/07/31 08:56:33;;;;;;;1.42;1.20;;;16.60;99.90;;;;;;5041704;28;20118;-86
2023/07/31 08:59:02;;;;;;;1.27;1.17;;;16.60;99.90;;;;;;5040043;28;20021;-86
2023/07/31 09:01:29;;;;;;;1.30;1.20;;;16.60;99.90;;;;;;5043270;28;20081;-83
2023/07/31 09:03:56;;;;;;;3.08;1.88;;;16.60;99.90;;;;;;5036932;28;20028;-85
2023/07/31 09:06:25;;;;;;;2.20;1.25;;;16.60;99.90;;;;;;5049523;28;20115;-86
2023/07/31 09:08:51;;;;;;;1.73;1.05;;;16.60;99.90;;;;;;5029650;28;20025;-85
2023/07/31 09:11:17;;;;;;;1.33;1.23;;;16.70;99.90;;;;;;5040966;28;20021;-85
2023/07/31 09:13:43;;;;;;;1.58;1.25;;;16.70;99.90;;;;;;5041837;28;20245;-85
2023/07/31 09:16:10;;;;;;;1.30;1.20;;;16.80;99.90;;;;;;5035153;28;20549;-86
2023/07/31 09:19:08;;;;;;;0.93;0.88;;;16.80;99.90;;;;;;5036267;28;20030;-87
2023/07/31 09:21:39;;;;;;;1.48;1.20;;;16.80;99.90;;;;;;4987504;28;20649;-85
2023/07/31 09:24:04;;;;;;;2.50;1.17;;;16.80;99.90;;;;;;5034929;28;20369;-86
2023/07/31 09:26:36;;;;;;;2.38;0.90;;;16.70;99.90;;;;;;5046954;28;20076;-85
2023/07/31 09:29:08;;;;;;;1.50;0.93;;;16.80;99.90;;;;;;5056358;28;20025;-86
2023/07/31 09:31:43;;;;;;;1.20;0.95;;;16.80;99.90;;;;;;5033111;28;20120;-86
2023/07/31 09:34:13;;;;;;;1.13;0.88;;;16.80;99.90;;;;;;5019811;28;20029;-86
2023/07/31 09:36:44;;;;;;;1.00;0.70;;;16.80;99.90;;;;;;5036420;28;20136;-86
2023/07/31 09:39:11;;;;;;;1.50;0.80;;;16.80;99.90;;;;;;5044215;28;20029;-85
2023/07/31 09:41:41;;;;;;;1.20;0.90;;;16.90;99.90;;;;;;5033408;28;20055;-86
2023/07/31 09:44:07;;;;;;;0.77;0.70;;;16.90;99.90;;;;;;5040066;28;20028;-86
2023/07/31 09:46:35;;;;;;;2.83;0.90;;;16.90;99.90;;;;;;5041950;28;20021;-85
2023/07/31 09:49:12;;;;;;;0.70;0.70;;;17.00;99.90;;;;;;5037452;28;20025;-85
2023/07/31 09:51:40;;;;;;;3.45;0.98;;;17.00;99.90;;;;;;5034522;28;20037;-85
2023/07/31 09:54:13;;;;;;;0.73;0.70;;;17.00;99.90;;;;;;5040329;28;20032;-85
2023/07/31 09:56:45;;;;;;;0.60;0.60;;;17.00;99.90;;;;;;5042781;28;20032;-85
2023/07/31 09:59:18;;;;;;;1.13;1.02;;;17.10;99.90;;;;;;5040253;28;20484;-85
2023/07/31 10:01:46;;;;;;;1.33;0.80;;;17.20;99.90;;;;;;5037316;28;20041;-86
2023/07/31 10:04:12;;;;;;;2.03;0.60;;;17.20;99.90;;;;;;5024565;28;20030;-84
2023/07/31 10:06:40;;;;;;;0.80;0.60;;;17.10;99.90;;;;;;5033815;28;20515;-85
2023/07/31 10:09:08;;;;;;;0.52;0.45;;;17.10;99.90;;;;;;5043929;28;20104;-86
2023/07/31 10:11:51;;;;;;;0.75;0.68;;;17.10;99.90;;;;;;5041222;28;20041;-86
2023/07/31 10:14:21;;;;;;;1.10;0.90;;;17.00;99.90;;;;;;5031528;28;20064;-85
2023/07/31 10:16:47;;;;;;;1.55;0.90;;;17.00;99.90;;;;;;5061409;28;20021;-84
2023/07/31 10:19:12;;;;;;;0.73;0.70;;;17.00;99.90;;;;;;5049590;28;20497;-84
2023/07/31 10:21:39;;;;;;;1.10;0.80;;;17.00;99.90;;;;;;5031009;28;20032;-85
2023/07/31 10:24:05;;;;;;;0.85;0.70;;;17.00;99.90;;;;;;5040059;28;20112;-86
2023/07/31 10:26:37;;;;;;;0.95;0.68;;;17.00;99.90;;;;;;5042905;28;20055;-85
2023/07/31 10:29:03;;;;;;;3.30;1.30;;;17.00;99.90;;;;;;5047115;28;20121;-87
2023/07/31 10:31:29;;;;;;;0.70;0.63;;;17.00;99.90;;;;;;5032708;28;20033;-86
2023/07/31 10:33:57;;;;;;;1.25;1.00;;;17.00;99.90;;;;;;5035097;28;20136;-85
2023/07/31 10:36:23;;;;;;;0.63;0.52;;;17.00;99.90;;;;;;5034322;28;20025;-85
2023/07/31 10:38:50;;;;;;;0.68;0.50;;;17.00;99.90;;;;;;5030687;28;20075;-85
2023/07/31 10:41:16;;;;;;;0.73;0.60;;;16.90;99.90;;;;;;5035807;28;20030;-85
2023/07/31 10:43:42;;;;;;;0.60;0.50;;;16.90;99.90;;;;;;5033599;28;20434;-85
2023/07/31 10:46:14;;;;;;;0.73;0.73;;;16.90;99.90;;;;;;5034682;28;20506;-85
2023/07/31 10:48:41;;;;;;;0.90;0.63;;;16.90;99.90;;;;;;5032825;28;20036;-85
2023/07/31 10:51:19;;;;;;;0.55;0.35;;;16.90;99.90;;;;;;5045144;28;20022;-85
2023/07/31 10:53:45;;;;;;;0.88;0.52;;;16.90;99.90;;;;;;5040470;28;20033;-84
2023/07/31 10:56:18;;;;;;;1.65;0.50;;;17.00;99.90;;;;;;5038532;28;20395;-83
2023/07/31 10:58:44;;;;;;;1.23;0.70;;;17.00;99.90;;;;;;5043233;28;20175;-85
2023/07/31 11:01:10;;;;;;;0.50;0.32;;;17.00;99.90;;;;;;5036838;28;20049;-85
2023/07/31 11:03:52;;;;;;;0.45;0.45;;;17.00;99.90;;;;;;5046432;28;20126;-85
2023/07/31 11:06:20;;;;;;;0.50;0.50;;;17.10;99.90;;;;;;5037049;28;20025;-85
2023/07/31 11:08:48;;;;;;;0.45;0.35;;;17.00;99.90;;;;;;5051229;28;20021;-84
2023/07/31 11:11:16;;;;;;;0.38;0.30;;;16.90;99.90;;;;;;5040543;28;20025;-84
2023/07/31 11:13:53;;;;;;;0.90;0.20;;;16.90;99.90;;;;;;5049740;28;20029;-85
2023/07/31 11:16:21;;;;;;;0.75;0.30;;;16.90;99.90;;;;;;5052576;28;20040;-84
2023/07/31 11:18:48;;;;;;;0.30;0.20;;;16.80;99.90;;;;;;5042310;28;20033;-84
2023/07/31 11:21:22;;;;;;;0.65;0.30;;;16.80;99.90;;;;;;5048244;28;20033;-84
2023/07/31 11:23:49;;;;;;;0.45;0.30;;;16.80;99.90;;;;;;5037314;28;20443;-87
2023/07/31 11:26:16;;;;;;;0.40;0.30;;;16.80;99.90;;;;;;5050484;28;20087;-85
2023/07/31 11:28:44;;;;;;;1.70;0.45;;;16.80;99.90;;;;;;5034885;28;20034;-85
2023/07/31 11:31:10;;;;;;;2.25;0.85;;;16.80;99.90;;;;;;5040222;28;20120;-84
2023/07/31 11:33:36;;;;;;;1.95;0.43;;;16.80;99.90;;;;;;5047116;28;20099;-85
2023/07/31 11:36:02;;;;;;;1.10;0.32;;;16.70;99.90;;;;;;5040375;28;20716;-85
2023/07/31 11:38:29;;;;;;;0.38;0.30;;;16.70;99.90;;;;;;5048819;28;20037;-84
2023/07/31 11:41:00;;;;;;;1.63;0.68;;;16.60;99.90;;;;;;5033411;28;20033;-84
2023/07/31 11:43:26;;;;;;;1.05;0.43;;;16.50;99.90;;;;;;5033312;28;20400;-84
2023/07/31 11:45:54;;;;;;;0.70;0.60;;;16.50;99.90;;;;;;5032847;28;20388;-84
2023/07/31 11:48:20;;;;;;;0.90;0.40;;;16.50;99.90;;;;;;5037477;28;20022;-85
2023/07/31 11:50:46;;;;;;;0.65;0.50;;;16.50;99.90;;;;;;5046611;28;20479;-85
2023/07/31 11:53:13;;;;;;;1.30;0.40;;;16.50;99.90;;;;;;5047618;28;20029;-85
2023/07/31 11:55:39;;;;;;;0.30;0.30;;;16.60;99.90;;;;;;5044154;28;20034;-85
2023/07/31 11:58:05;;;;;;;0.85;0.38;;;16.50;99.90;;;;;;5052691;28;20025;-87
2023/07/31 12:00:31;;;;;;;0.40;0.40;;;16.50;99.90;;;;;;5045847;28;20029;-84
2023/07/31 12:02:56;;;;;;;0.60;0.50;;;16.50;99.90;;;;;;5049839;28;20502;-86
2023/07/31 12:05:23;;;;;;;0.88;0.50;;;16.50;99.90;;;;;;5036094;28;20022;-84
2023/07/31 12:07:53;;;;;;;0.35;0.35;;;16.50;99.90;;;;;;5046082;28;20103;-84
2023/07/31 12:10:27;;;;;;;0.75;0.38;;;16.50;99.90;;;;;;5042468;28;20049;-85
2023/07/31 12:13:08;;;;;;;0.45;0.30;;;16.50;99.90;;;;;;5034086;28;20482;-85
2023/07/31 12:15:38;;;;;;;0.52;0.52;;;16.40;99.90;;;;;;5042206;28;20087;-85
2023/07/31 12:18:19;;;;;;;0.70;0.50;;;16.40;99.90;;;;;;5037846;28;20021;-86
2023/07/31 12:21:09;;;;;;;0.40;0.40;;;16.40;99.90;;;;;;5042071;28;20107;-85
2023/07/31 12:23:37;;;;;;;0.30;0.28;;;16.40;99.90;;;;;;5034937;28;20037;-84
2023/07/31 12:26:17;;;;;;;0.30;0.30;;;16.50;99.90;;;;;;5043408;28;20017;-86
2023/07/31 12:28:49;;;;;;;0.82;0.73;;;16.40;99.90;;;;;;5039327;28;20021;-84
2023/07/31 12:31:20;;;;;;;0.77;0.50;;;16.40;99.90;;;;;;5043464;28;21726;-84
2023/07/31 12:33:47;;;;;;;0.70;0.45;;;16.50;99.90;;;;;;5041013;28;20021;-85
2023/07/31 12:36:17;;;;;;;0.47;0.47;;;16.50;99.90;;;;;;5037772;28;20479;-85
2023/07/31 12:38:55;;;;;;;0.32;0.32;;;16.50;99.90;;;;;;5045156;28;20044;-84
2023/07/31 12:41:21;;;;;;;1.95;0.50;;;16.50;99.90;;;;;;5045206;28;20086;-84
2023/07/31 12:43:47;;;;;;;1.55;0.63;;;16.50;99.90;;;;;;5036384;28;20048;-85
2023/07/31 12:46:13;;;;;;;1.52;0.70;;;16.50;99.90;;;;;;5042221;28;20025;-86